sensor_id;sensor_type;location;lat;lon;timestamp;P1;durP1;ratioP1;P2;durP2;ratioP2
7965;SDS011;4028;43.272;26.932;2022-07-19T00:01:44;2.97;;;1.60;;
7965;SDS011;4028;43.272;26.932;2022-07-19T00:04:09;2.33;;;1.80;;
7965;SDS011;4028;43.272;26.932;2022-07-19T00:06:35;1.90;;;1.70;;
7965;SDS011;4028;43.272;26.932;2022-07-19T00:09:01;2.43;;;1.60;;
7965;SDS011;4028;43.272;26.932;2022-07-19T00:11:26;3.27;;;1.70;;
7965;SDS011;4028;43.272;26.932;2022-07-19T00:13:52;2.10;;;1.43;;
7965;SDS011;4028;43.272;26.932;2022-07-19T00:16:18;1.63;;;1.53;;
7965;SDS011;4028;43.272;26.932;2022-07-19T00:18:43;1.90;;;1.70;;
7965;SDS011;4028;43.272;26.932;2022-07-19T00:21:09;2.77;;;1.87;;
7965;SDS011;4028;43.272;26.932;2022-07-19T00:23:34;3.37;;;1.63;;
7965;SDS011;4028;43.272;26.932;2022-07-19T00:26:03;2.03;;;1.53;;
7965;SDS011;4028;43.272;26.932;2022-07-19T00:28:29;1.87;;;1.67;;
7965;SDS011;4028;43.272;26.932;2022-07-19T00:30:55;4.03;;;1.77;;
7965;SDS011;4028;43.272;26.932;2022-07-19T00:33:20;1.93;;;1.53;;
7965;SDS011;4028;43.272;26.932;2022-07-19T00:35:45;2.70;;;1.57;;
7965;SDS011;4028;43.272;26.932;2022-07-19T00:38:11;2.23;;;1.60;;
7965;SDS011;4028;43.272;26.932;2022-07-19T00:40:38;3.97;;;1.87;;
7965;SDS011;4028;43.272;26.932;2022-07-19T00:43:06;2.77;;;1.67;;
7965;SDS011;4028;43.272;26.932;2022-07-19T00:45:32;4.20;;;1.83;;
7965;SDS011;4028;43.272;26.932;2022-07-19T00:47:57;4.93;;;1.80;;
7965;SDS011;4028;43.272;26.932;2022-07-19T00:50:23;2.93;;;1.97;;
7965;SDS011;4028;43.272;26.932;2022-07-19T00:52:56;1.90;;;1.70;;
7965;SDS011;4028;43.272;26.932;2022-07-19T00:55:25;4.13;;;2.00;;
7965;SDS011;4028;43.272;26.932;2022-07-19T00:57:53;2.10;;;1.63;;
7965;SDS011;4028;43.272;26.932;2022-07-19T01:00:21;2.90;;;1.70;;
7965;SDS011;4028;43.272;26.932;2022-07-19T01:02:47;3.40;;;1.87;;
7965;SDS011;4028;43.272;26.932;2022-07-19T01:05:12;2.73;;;1.80;;
7965;SDS011;4028;43.272;26.932;2022-07-19T01:07:41;2.47;;;1.60;;
7965;SDS011;4028;43.272;26.932;2022-07-19T01:10:08;3.13;;;2.00;;
7965;SDS011;4028;43.272;26.932;2022-07-19T01:12:35;4.33;;;2.43;;
7965;SDS011;4028;43.272;26.932;2022-07-19T01:15:02;2.70;;;1.70;;
7965;SDS011;4028;43.272;26.932;2022-07-19T01:17:36;4.40;;;2.00;;
7965;SDS011;4028;43.272;26.932;2022-07-19T01:20:02;1.87;;;1.77;;
7965;SDS011;4028;43.272;26.932;2022-07-19T01:22:27;7.63;;;2.27;;
7965;SDS011;4028;43.272;26.932;2022-07-19T01:24:53;3.03;;;2.00;;
7965;SDS011;4028;43.272;26.932;2022-07-19T01:27:18;4.67;;;2.20;;
7965;SDS011;4028;43.272;26.932;2022-07-19T01:29:44;4.17;;;2.30;;
7965;SDS011;4028;43.272;26.932;2022-07-19T01:32:09;4.03;;;2.20;;
7965;SDS011;4028;43.272;26.932;2022-07-19T01:34:35;2.37;;;2.17;;
7965;SDS011;4028;43.272;26.932;2022-07-19T01:37:00;3.97;;;2.50;;
7965;SDS011;4028;43.272;26.932;2022-07-19T01:39:26;2.77;;;2.30;;
7965;SDS011;4028;43.272;26.932;2022-07-19T01:41:51;4.53;;;2.23;;
7965;SDS011;4028;43.272;26.932;2022-07-19T01:44:17;2.50;;;2.30;;
7965;SDS011;4028;43.272;26.932;2022-07-19T01:46:42;3.03;;;2.37;;
7965;SDS011;4028;43.272;26.932;2022-07-19T01:49:07;3.83;;;2.30;;
7965;SDS011;4028;43.272;26.932;2022-07-19T01:51:33;3.40;;;2.57;;
7965;SDS011;4028;43.272;26.932;2022-07-19T01:53:58;2.53;;;2.33;;
7965;SDS011;4028;43.272;26.932;2022-07-19T01:56:24;2.87;;;2.30;;
7965;SDS011;4028;43.272;26.932;2022-07-19T01:58:49;4.00;;;2.57;;
7965;SDS011;4028;43.272;26.932;2022-07-19T02:01:15;4.73;;;2.70;;
7965;SDS011;4028;43.272;26.932;2022-07-19T02:03:41;5.40;;;2.80;;
7965;SDS011;4028;43.272;26.932;2022-07-19T02:06:06;3.73;;;2.73;;
7965;SDS011;4028;43.272;26.932;2022-07-19T02:08:32;4.40;;;3.17;;
7965;SDS011;4028;43.272;26.932;2022-07-19T02:10:57;4.23;;;3.03;;
7965;SDS011;4028;43.272;26.932;2022-07-19T02:13:43;5.30;;;2.87;;
7965;SDS011;4028;43.272;26.932;2022-07-19T02:16:08;3.10;;;2.80;;
7965;SDS011;4028;43.272;26.932;2022-07-19T02:18:34;3.00;;;2.60;;
7965;SDS011;4028;43.272;26.932;2022-07-19T02:20:59;3.27;;;2.60;;
7965;SDS011;4028;43.272;26.932;2022-07-19T02:23:25;5.47;;;2.83;;
7965;SDS011;4028;43.272;26.932;2022-07-19T02:25:50;3.77;;;2.63;;
7965;SDS011;4028;43.272;26.932;2022-07-19T02:28:16;6.23;;;2.90;;
7965;SDS011;4028;43.272;26.932;2022-07-19T02:30:41;6.07;;;2.70;;
7965;SDS011;4028;43.272;26.932;2022-07-19T02:33:07;3.63;;;2.80;;
7965;SDS011;4028;43.272;26.932;2022-07-19T02:35:32;4.37;;;2.90;;
7965;SDS011;4028;43.272;26.932;2022-07-19T02:37:58;5.23;;;3.03;;
7965;SDS011;4028;43.272;26.932;2022-07-19T02:40:23;6.00;;;3.03;;
7965;SDS011;4028;43.272;26.932;2022-07-19T02:42:49;5.37;;;2.93;;
7965;SDS011;4028;43.272;26.932;2022-07-19T02:45:14;3.97;;;2.27;;
7965;SDS011;4028;43.272;26.932;2022-07-19T02:47:40;4.07;;;2.47;;
7965;SDS011;4028;43.272;26.932;2022-07-19T02:50:05;3.23;;;2.40;;
7965;SDS011;4028;43.272;26.932;2022-07-19T02:52:31;3.83;;;2.43;;
7965;SDS011;4028;43.272;26.932;2022-07-19T02:54:57;3.23;;;1.60;;
7965;SDS011;4028;43.272;26.932;2022-07-19T02:57:22;3.40;;;2.17;;
7965;SDS011;4028;43.272;26.932;2022-07-19T02:59:48;5.13;;;2.67;;
7965;SDS011;4028;43.272;26.932;2022-07-19T03:02:13;6.80;;;2.40;;
7965;SDS011;4028;43.272;26.932;2022-07-19T03:04:39;5.13;;;2.83;;
7965;SDS011;4028;43.272;26.932;2022-07-19T03:07:04;4.73;;;3.30;;
7965;SDS011;4028;43.272;26.932;2022-07-19T03:09:29;5.67;;;3.50;;
7965;SDS011;4028;43.272;26.932;2022-07-19T03:11:55;4.80;;;3.60;;
7965;SDS011;4028;43.272;26.932;2022-07-19T03:14:20;4.07;;;3.67;;
7965;SDS011;4028;43.272;26.932;2022-07-19T03:16:46;4.50;;;4.10;;
7965;SDS011;4028;43.272;26.932;2022-07-19T03:19:11;8.20;;;5.00;;
7965;SDS011;4028;43.272;26.932;2022-07-19T03:21:37;6.17;;;4.30;;
7965;SDS011;4028;43.272;26.932;2022-07-19T03:24:02;7.00;;;4.50;;
7965;SDS011;4028;43.272;26.932;2022-07-19T03:26:28;9.50;;;4.00;;
7965;SDS011;4028;43.272;26.932;2022-07-19T03:28:53;7.33;;;4.10;;
7965;SDS011;4028;43.272;26.932;2022-07-19T03:31:19;9.33;;;4.23;;
7965;SDS011;4028;43.272;26.932;2022-07-19T03:33:44;8.90;;;3.97;;
7965;SDS011;4028;43.272;26.932;2022-07-19T03:36:10;8.90;;;4.13;;
7965;SDS011;4028;43.272;26.932;2022-07-19T03:38:35;7.70;;;4.10;;
7965;SDS011;4028;43.272;26.932;2022-07-19T03:41:01;6.03;;;4.03;;
7965;SDS011;4028;43.272;26.932;2022-07-19T03:43:26;5.53;;;3.60;;
7965;SDS011;4028;43.272;26.932;2022-07-19T03:45:52;4.30;;;3.50;;
7965;SDS011;4028;43.272;26.932;2022-07-19T03:48:17;4.00;;;3.43;;
7965;SDS011;4028;43.272;26.932;2022-07-19T03:50:43;5.00;;;3.53;;
7965;SDS011;4028;43.272;26.932;2022-07-19T03:53:08;4.13;;;2.90;;
7965;SDS011;4028;43.272;26.932;2022-07-19T03:55:34;4.23;;;2.80;;
7965;SDS011;4028;43.272;26.932;2022-07-19T03:58:00;5.72;;;2.55;;
7965;SDS011;4028;43.272;26.932;2022-07-19T04:00:25;4.85;;;3.25;;
7965;SDS011;4028;43.272;26.932;2022-07-19T04:02:51;6.50;;;3.00;;
7965;SDS011;4028;43.272;26.932;2022-07-19T04:05:16;7.97;;;3.03;;
7965;SDS011;4028;43.272;26.932;2022-07-19T04:07:42;6.18;;;2.67;;
7965;SDS011;4028;43.272;26.932;2022-07-19T04:10:08;4.50;;;3.10;;
7965;SDS011;4028;43.272;26.932;2022-07-19T04:12:34;4.45;;;2.92;;
7965;SDS011;4028;43.272;26.932;2022-07-19T04:15:00;6.32;;;3.13;;
7965;SDS011;4028;43.272;26.932;2022-07-19T04:17:26;7.82;;;3.22;;
7965;SDS011;4028;43.272;26.932;2022-07-19T04:19:51;7.07;;;3.88;;
7965;SDS011;4028;43.272;26.932;2022-07-19T04:22:17;5.50;;;3.33;;
7965;SDS011;4028;43.272;26.932;2022-07-19T04:24:42;8.07;;;4.03;;
7965;SDS011;4028;43.272;26.932;2022-07-19T04:27:08;8.80;;;4.38;;
7965;SDS011;4028;43.272;26.932;2022-07-19T04:29:34;7.25;;;4.43;;
7965;SDS011;4028;43.272;26.932;2022-07-19T04:31:59;6.35;;;3.90;;
7965;SDS011;4028;43.272;26.932;2022-07-19T04:34:25;11.57;;;4.30;;
7965;SDS011;4028;43.272;26.932;2022-07-19T04:36:50;7.05;;;3.90;;
7965;SDS011;4028;43.272;26.932;2022-07-19T04:39:16;6.97;;;4.70;;
7965;SDS011;4028;43.272;26.932;2022-07-19T04:41:41;7.60;;;4.45;;
7965;SDS011;4028;43.272;26.932;2022-07-19T04:44:07;10.43;;;4.90;;
7965;SDS011;4028;43.272;26.932;2022-07-19T04:46:32;11.82;;;5.00;;
7965;SDS011;4028;43.272;26.932;2022-07-19T04:48:58;13.55;;;4.65;;
7965;SDS011;4028;43.272;26.932;2022-07-19T04:51:23;9.15;;;4.03;;
7965;SDS011;4028;43.272;26.932;2022-07-19T04:53:49;10.43;;;4.40;;
7965;SDS011;4028;43.272;26.932;2022-07-19T04:56:14;9.15;;;4.10;;
7965;SDS011;4028;43.272;26.932;2022-07-19T04:58:40;11.75;;;5.13;;
7965;SDS011;4028;43.272;26.932;2022-07-19T05:01:05;14.05;;;5.35;;
7965;SDS011;4028;43.272;26.932;2022-07-19T05:03:31;8.73;;;5.25;;
7965;SDS011;4028;43.272;26.932;2022-07-19T05:05:56;12.00;;;5.35;;
7965;SDS011;4028;43.272;26.932;2022-07-19T05:08:22;16.23;;;6.15;;
7965;SDS011;4028;43.272;26.932;2022-07-19T05:10:47;8.50;;;5.20;;
7965;SDS011;4028;43.272;26.932;2022-07-19T05:13:13;17.30;;;5.38;;
7965;SDS011;4028;43.272;26.932;2022-07-19T05:15:38;10.00;;;5.28;;
7965;SDS011;4028;43.272;26.932;2022-07-19T05:18:04;11.45;;;4.53;;
7965;SDS011;4028;43.272;26.932;2022-07-19T05:20:29;13.73;;;4.75;;
7965;SDS011;4028;43.272;26.932;2022-07-19T05:22:55;17.45;;;5.53;;
7965;SDS011;4028;43.272;26.932;2022-07-19T05:25:20;12.80;;;4.47;;
7965;SDS011;4028;43.272;26.932;2022-07-19T05:27:45;8.20;;;4.30;;
7965;SDS011;4028;43.272;26.932;2022-07-19T05:30:11;15.30;;;5.07;;
7965;SDS011;4028;43.272;26.932;2022-07-19T05:32:37;13.70;;;4.70;;
7965;SDS011;4028;43.272;26.932;2022-07-19T05:35:03;14.95;;;4.15;;
7965;SDS011;4028;43.272;26.932;2022-07-19T05:37:28;6.85;;;4.03;;
7965;SDS011;4028;43.272;26.932;2022-07-19T05:39:54;5.32;;;3.90;;
7965;SDS011;4028;43.272;26.932;2022-07-19T05:42:19;7.53;;;3.78;;
7965;SDS011;4028;43.272;26.932;2022-07-19T05:44:45;9.10;;;3.58;;
7965;SDS011;4028;43.272;26.932;2022-07-19T05:47:10;4.00;;;3.20;;
7965;SDS011;4028;43.272;26.932;2022-07-19T05:49:36;6.22;;;4.10;;
7965;SDS011;4028;43.272;26.932;2022-07-19T05:52:01;5.13;;;3.35;;
7965;SDS011;4028;43.272;26.932;2022-07-19T05:54:27;8.40;;;3.75;;
7965;SDS011;4028;43.272;26.932;2022-07-19T05:56:53;3.95;;;3.22;;
7965;SDS011;4028;43.272;26.932;2022-07-19T05:59:19;6.72;;;4.00;;
7965;SDS011;4028;43.272;26.932;2022-07-19T06:01:47;7.78;;;3.67;;
7965;SDS011;4028;43.272;26.932;2022-07-19T06:04:13;7.70;;;3.50;;
7965;SDS011;4028;43.272;26.932;2022-07-19T06:06:39;10.55;;;3.70;;
7965;SDS011;4028;43.272;26.932;2022-07-19T06:09:04;5.60;;;3.40;;
7965;SDS011;4028;43.272;26.932;2022-07-19T06:11:30;7.60;;;3.25;;
7965;SDS011;4028;43.272;26.932;2022-07-19T06:13:56;5.32;;;3.33;;
7965;SDS011;4028;43.272;26.932;2022-07-19T06:16:22;7.28;;;3.00;;
7965;SDS011;4028;43.272;26.932;2022-07-19T06:18:48;8.60;;;2.90;;
7965;SDS011;4028;43.272;26.932;2022-07-19T06:21:14;7.20;;;3.28;;
7965;SDS011;4028;43.272;26.932;2022-07-19T06:23:42;13.23;;;3.10;;
7965;SDS011;4028;43.272;26.932;2022-07-19T06:26:08;6.43;;;3.08;;
7965;SDS011;4028;43.272;26.932;2022-07-19T06:28:35;7.28;;;3.05;;
7965;SDS011;4028;43.272;26.932;2022-07-19T06:31:01;12.02;;;3.55;;
7965;SDS011;4028;43.272;26.932;2022-07-19T06:33:26;5.45;;;2.55;;
7965;SDS011;4028;43.272;26.932;2022-07-19T06:35:52;4.57;;;2.33;;
7965;SDS011;4028;43.272;26.932;2022-07-19T06:38:17;6.25;;;2.58;;
7965;SDS011;4028;43.272;26.932;2022-07-19T06:40:43;2.83;;;2.30;;
7965;SDS011;4028;43.272;26.932;2022-07-19T06:43:09;3.85;;;2.25;;
7965;SDS011;4028;43.272;26.932;2022-07-19T06:45:35;4.38;;;2.67;;
7965;SDS011;4028;43.272;26.932;2022-07-19T06:48:00;4.07;;;2.70;;
7965;SDS011;4028;43.272;26.932;2022-07-19T06:50:26;6.20;;;2.95;;
7965;SDS011;4028;43.272;26.932;2022-07-19T06:52:51;6.78;;;3.30;;
7965;SDS011;4028;43.272;26.932;2022-07-19T06:55:17;3.47;;;2.63;;
7965;SDS011;4028;43.272;26.932;2022-07-19T06:57:43;4.32;;;2.60;;
7965;SDS011;4028;43.272;26.932;2022-07-19T07:00:09;5.60;;;2.95;;
7965;SDS011;4028;43.272;26.932;2022-07-19T07:02:38;6.13;;;2.83;;
7965;SDS011;4028;43.272;26.932;2022-07-19T07:05:05;6.45;;;2.92;;
7965;SDS011;4028;43.272;26.932;2022-07-19T07:07:32;5.68;;;2.70;;
7965;SDS011;4028;43.272;26.932;2022-07-19T07:09:57;8.95;;;2.60;;
7965;SDS011;4028;43.272;26.932;2022-07-19T07:12:23;5.03;;;2.92;;
7965;SDS011;4028;43.272;26.932;2022-07-19T07:14:48;4.95;;;2.90;;
7965;SDS011;4028;43.272;26.932;2022-07-19T07:17:14;8.30;;;2.75;;
7965;SDS011;4028;43.272;26.932;2022-07-19T07:19:39;5.30;;;3.67;;
7965;SDS011;4028;43.272;26.932;2022-07-19T07:22:04;6.15;;;3.90;;
7965;SDS011;4028;43.272;26.932;2022-07-19T07:24:30;4.20;;;3.20;;
7965;SDS011;4028;43.272;26.932;2022-07-19T07:26:56;6.13;;;3.47;;
7965;SDS011;4028;43.272;26.932;2022-07-19T07:29:21;5.18;;;3.55;;
7965;SDS011;4028;43.272;26.932;2022-07-19T07:31:47;9.93;;;4.03;;
7965;SDS011;4028;43.272;26.932;2022-07-19T07:34:12;6.15;;;3.53;;
7965;SDS011;4028;43.272;26.932;2022-07-19T07:36:38;6.70;;;3.30;;
7965;SDS011;4028;43.272;26.932;2022-07-19T07:39:04;7.88;;;3.30;;
7965;SDS011;4028;43.272;26.932;2022-07-19T07:41:29;5.57;;;3.15;;
7965;SDS011;4028;43.272;26.932;2022-07-19T07:43:55;6.28;;;3.40;;
7965;SDS011;4028;43.272;26.932;2022-07-19T07:46:20;4.55;;;2.40;;
7965;SDS011;4028;43.272;26.932;2022-07-19T07:48:46;3.00;;;2.10;;
7965;SDS011;4028;43.272;26.932;2022-07-19T07:51:11;5.18;;;2.05;;
7965;SDS011;4028;43.272;26.932;2022-07-19T07:53:37;6.30;;;2.03;;
7965;SDS011;4028;43.272;26.932;2022-07-19T07:56:02;2.25;;;1.90;;
7965;SDS011;4028;43.272;26.932;2022-07-19T07:58:28;2.30;;;1.77;;
7965;SDS011;4028;43.272;26.932;2022-07-19T08:00:54;2.42;;;2.03;;
7965;SDS011;4028;43.272;26.932;2022-07-19T08:03:19;2.17;;;1.98;;
7965;SDS011;4028;43.272;26.932;2022-07-19T08:05:45;1.70;;;1.60;;
7965;SDS011;4028;43.272;26.932;2022-07-19T08:08:15;4.10;;;1.70;;
7965;SDS011;4028;43.272;26.932;2022-07-19T08:10:41;3.15;;;1.85;;
7965;SDS011;4028;43.272;26.932;2022-07-19T08:13:06;3.58;;;1.80;;
7965;SDS011;4028;43.272;26.932;2022-07-19T08:15:32;4.68;;;1.80;;
7965;SDS011;4028;43.272;26.932;2022-07-19T08:17:58;2.05;;;1.92;;
7965;SDS011;4028;43.272;26.932;2022-07-19T08:20:24;2.20;;;1.77;;
7965;SDS011;4028;43.272;26.932;2022-07-19T08:22:50;2.22;;;1.90;;
7965;SDS011;4028;43.272;26.932;2022-07-19T08:25:15;2.28;;;1.58;;
7965;SDS011;4028;43.272;26.932;2022-07-19T08:27:44;5.18;;;2.05;;
7965;SDS011;4028;43.272;26.932;2022-07-19T08:30:11;5.97;;;2.17;;
7965;SDS011;4028;43.272;26.932;2022-07-19T08:32:37;3.38;;;1.88;;
7965;SDS011;4028;43.272;26.932;2022-07-19T08:35:04;7.28;;;2.05;;
7965;SDS011;4028;43.272;26.932;2022-07-19T08:37:31;2.08;;;1.80;;
7965;SDS011;4028;43.272;26.932;2022-07-19T08:39:56;3.50;;;1.70;;
7965;SDS011;4028;43.272;26.932;2022-07-19T08:42:22;2.03;;;1.73;;
7965;SDS011;4028;43.272;26.932;2022-07-19T08:44:50;2.45;;;1.70;;
7965;SDS011;4028;43.272;26.932;2022-07-19T08:47:20;5.97;;;1.90;;
7965;SDS011;4028;43.272;26.932;2022-07-19T08:49:47;1.60;;;1.50;;
7965;SDS011;4028;43.272;26.932;2022-07-19T08:52:13;1.73;;;1.63;;
7965;SDS011;4028;43.272;26.932;2022-07-19T08:54:39;2.28;;;1.85;;
7965;SDS011;4028;43.272;26.932;2022-07-19T08:57:06;2.05;;;1.60;;
7965;SDS011;4028;43.272;26.932;2022-07-19T08:59:50;1.70;;;1.60;;
7965;SDS011;4028;43.272;26.932;2022-07-19T09:02:16;3.90;;;1.73;;
7965;SDS011;4028;43.272;26.932;2022-07-19T09:04:41;2.05;;;1.83;;
7965;SDS011;4028;43.272;26.932;2022-07-19T09:07:07;3.65;;;1.67;;
7965;SDS011;4028;43.272;26.932;2022-07-19T09:09:33;3.85;;;1.77;;
7965;SDS011;4028;43.272;26.932;2022-07-19T09:12:01;2.42;;;1.70;;
7965;SDS011;4028;43.272;26.932;2022-07-19T09:14:29;3.00;;;1.73;;
7965;SDS011;4028;43.272;26.932;2022-07-19T09:17:06;2.97;;;1.90;;
7965;SDS011;4028;43.272;26.932;2022-07-19T09:19:45;1.70;;;1.60;;
7965;SDS011;4028;43.272;26.932;2022-07-19T09:24:43;2.97;;;1.70;;
7965;SDS011;4028;43.272;26.932;2022-07-19T09:27:11;2.85;;;2.05;;
7965;SDS011;4028;43.272;26.932;2022-07-19T09:29:45;2.35;;;1.88;;
7965;SDS011;4028;43.272;26.932;2022-07-19T09:32:18;2.00;;;1.90;;
7965;SDS011;4028;43.272;26.932;2022-07-19T09:37:14;2.35;;;1.58;;
7965;SDS011;4028;43.272;26.932;2022-07-19T09:39:48;2.70;;;1.80;;
7965;SDS011;4028;43.272;26.932;2022-07-19T09:42:34;2.42;;;1.80;;
7965;SDS011;4028;43.272;26.932;2022-07-19T09:45:08;2.58;;;1.80;;
7965;SDS011;4028;43.272;26.932;2022-07-19T09:47:37;2.03;;;1.83;;
7965;SDS011;4028;43.272;26.932;2022-07-19T09:50:07;1.77;;;1.63;;
7965;SDS011;4028;43.272;26.932;2022-07-19T09:52:35;3.67;;;1.70;;
7965;SDS011;4028;43.272;26.932;2022-07-19T09:55:02;3.03;;;2.00;;
7965;SDS011;4028;43.272;26.932;2022-07-19T09:57:29;1.83;;;1.63;;
7965;SDS011;4028;43.272;26.932;2022-07-19T10:00:01;2.10;;;1.60;;
7965;SDS011;4028;43.272;26.932;2022-07-19T10:02:29;2.97;;;1.77;;
7965;SDS011;4028;43.272;26.932;2022-07-19T10:05:05;4.15;;;1.70;;
7965;SDS011;4028;43.272;26.932;2022-07-19T10:07:32;6.50;;;1.90;;
7965;SDS011;4028;43.272;26.932;2022-07-19T10:10:08;2.80;;;1.70;;
7965;SDS011;4028;43.272;26.932;2022-07-19T10:12:36;3.17;;;2.05;;
7965;SDS011;4028;43.272;26.932;2022-07-19T10:15:03;2.22;;;1.80;;
7965;SDS011;4028;43.272;26.932;2022-07-19T10:20:26;2.25;;;1.50;;
7965;SDS011;4028;43.272;26.932;2022-07-19T10:22:57;2.90;;;1.95;;
7965;SDS011;4028;43.272;26.932;2022-07-19T10:25:24;3.38;;;1.48;;
7965;SDS011;4028;43.272;26.932;2022-07-19T10:27:52;2.10;;;1.88;;
7965;SDS011;4028;43.272;26.932;2022-07-19T10:30:23;2.17;;;1.70;;
7965;SDS011;4028;43.272;26.932;2022-07-19T10:32:51;2.40;;;1.70;;
7965;SDS011;4028;43.272;26.932;2022-07-19T10:35:19;4.78;;;1.90;;
7965;SDS011;4028;43.272;26.932;2022-07-19T10:38:14;1.67;;;1.58;;
7965;SDS011;4028;43.272;26.932;2022-07-19T10:40:54;4.25;;;1.70;;
7965;SDS011;4028;43.272;26.932;2022-07-19T10:43:23;2.40;;;1.40;;
7965;SDS011;4028;43.272;26.932;2022-07-19T10:48:34;2.20;;;1.65;;
7965;SDS011;4028;43.272;26.932;2022-07-19T10:51:00;5.75;;;1.80;;
7965;SDS011;4028;43.272;26.932;2022-07-19T10:56:22;2.60;;;1.80;;
7965;SDS011;4028;43.272;26.932;2022-07-19T10:58:53;2.10;;;1.90;;
7965;SDS011;4028;43.272;26.932;2022-07-19T11:01:24;2.38;;;1.83;;
7965;SDS011;4028;43.272;26.932;2022-07-19T11:03:51;2.17;;;1.98;;
7965;SDS011;4028;43.272;26.932;2022-07-19T11:06:22;2.60;;;1.60;;
7965;SDS011;4028;43.272;26.932;2022-07-19T11:08:53;3.10;;;2.05;;
7965;SDS011;4028;43.272;26.932;2022-07-19T11:11:23;2.30;;;1.60;;
7965;SDS011;4028;43.272;26.932;2022-07-19T11:13:54;1.70;;;1.60;;
7965;SDS011;4028;43.272;26.932;2022-07-19T11:16:26;4.68;;;1.73;;
7965;SDS011;4028;43.272;26.932;2022-07-19T11:19:01;2.75;;;1.40;;
7965;SDS011;4028;43.272;26.932;2022-07-19T11:21:29;2.53;;;1.92;;
7965;SDS011;4028;43.272;26.932;2022-07-19T11:23:56;3.47;;;1.70;;
7965;SDS011;4028;43.272;26.932;2022-07-19T11:26:21;1.88;;;1.77;;
7965;SDS011;4028;43.272;26.932;2022-07-19T11:28:47;2.53;;;1.60;;
7965;SDS011;4028;43.272;26.932;2022-07-19T11:31:14;1.60;;;1.50;;
7965;SDS011;4028;43.272;26.932;2022-07-19T11:33:48;5.15;;;1.83;;
7965;SDS011;4028;43.272;26.932;2022-07-19T11:36:16;2.03;;;1.80;;
7965;SDS011;4028;43.272;26.932;2022-07-19T11:38:49;5.13;;;1.83;;
7965;SDS011;4028;43.272;26.932;2022-07-19T11:41:21;1.80;;;1.70;;
7965;SDS011;4028;43.272;26.932;2022-07-19T11:43:55;1.85;;;1.60;;
7965;SDS011;4028;43.272;26.932;2022-07-19T11:46:27;2.45;;;1.75;;
7965;SDS011;4028;43.272;26.932;2022-07-19T11:48:58;3.10;;;2.05;;
7965;SDS011;4028;43.272;26.932;2022-07-19T11:51:25;4.78;;;2.15;;
7965;SDS011;4028;43.272;26.932;2022-07-19T11:53:51;1.98;;;1.73;;
7965;SDS011;4028;43.272;26.932;2022-07-19T11:56:37;1.73;;;1.63;;
7965;SDS011;4028;43.272;26.932;2022-07-19T11:59:06;2.35;;;1.70;;
7965;SDS011;4028;43.272;26.932;2022-07-19T12:01:34;2.40;;;1.80;;
7965;SDS011;4028;43.272;26.932;2022-07-19T12:04:07;2.17;;;1.55;;
7965;SDS011;4028;43.272;26.932;2022-07-19T12:09:29;1.98;;;1.75;;
7965;SDS011;4028;43.272;26.932;2022-07-19T12:11:58;2.30;;;1.70;;
7965;SDS011;4028;43.272;26.932;2022-07-19T12:14:25;2.63;;;1.70;;
7965;SDS011;4028;43.272;26.932;2022-07-19T12:19:42;7.75;;;2.10;;
7965;SDS011;4028;43.272;26.932;2022-07-19T12:24:54;6.07;;;3.67;;
7965;SDS011;4028;43.272;26.932;2022-07-19T12:27:19;4.97;;;2.83;;
7965;SDS011;4028;43.272;26.932;2022-07-19T12:29:48;2.60;;;1.95;;
7965;SDS011;4028;43.272;26.932;2022-07-19T12:32:15;2.15;;;1.90;;
7965;SDS011;4028;43.272;26.932;2022-07-19T12:35:09;2.03;;;1.83;;
7965;SDS011;4028;43.272;26.932;2022-07-19T12:37:37;2.25;;;1.80;;
7965;SDS011;4028;43.272;26.932;2022-07-19T12:42:50;1.88;;;1.75;;
7965;SDS011;4028;43.272;26.932;2022-07-19T12:45:40;1.90;;;1.70;;
7965;SDS011;4028;43.272;26.932;2022-07-19T12:48:09;3.90;;;2.00;;
7965;SDS011;4028;43.272;26.932;2022-07-19T12:50:37;4.28;;;1.70;;
7965;SDS011;4028;43.272;26.932;2022-07-19T12:53:06;1.88;;;1.75;;
7965;SDS011;4028;43.272;26.932;2022-07-19T12:55:34;4.18;;;1.73;;
7965;SDS011;4028;43.272;26.932;2022-07-19T12:58:01;3.17;;;1.77;;
7965;SDS011;4028;43.272;26.932;2022-07-19T13:00:28;2.70;;;1.80;;
7965;SDS011;4028;43.272;26.932;2022-07-19T13:02:57;3.33;;;1.98;;
7965;SDS011;4028;43.272;26.932;2022-07-19T13:05:26;4.13;;;2.65;;
7965;SDS011;4028;43.272;26.932;2022-07-19T13:07:53;2.55;;;1.70;;
7965;SDS011;4028;43.272;26.932;2022-07-19T13:10:20;2.78;;;2.00;;
7965;SDS011;4028;43.272;26.932;2022-07-19T13:12:46;1.75;;;1.60;;
7965;SDS011;4028;43.272;26.932;2022-07-19T13:15:12;2.80;;;1.67;;
7965;SDS011;4028;43.272;26.932;2022-07-19T13:17:39;3.33;;;2.08;;
7965;SDS011;4028;43.272;26.932;2022-07-19T13:20:05;5.53;;;1.90;;
7965;SDS011;4028;43.272;26.932;2022-07-19T13:22:34;3.47;;;1.90;;
7965;SDS011;4028;43.272;26.932;2022-07-19T13:25:00;4.68;;;1.60;;
7965;SDS011;4028;43.272;26.932;2022-07-19T13:27:26;2.63;;;1.80;;
7965;SDS011;4028;43.272;26.932;2022-07-19T13:29:51;1.83;;;1.73;;
7965;SDS011;4028;43.272;26.932;2022-07-19T13:32:17;3.13;;;1.92;;
7965;SDS011;4028;43.272;26.932;2022-07-19T13:34:45;3.15;;;1.77;;
7965;SDS011;4028;43.272;26.932;2022-07-19T13:37:11;1.75;;;1.63;;
7965;SDS011;4028;43.272;26.932;2022-07-19T13:39:38;3.63;;;1.60;;
7965;SDS011;4028;43.272;26.932;2022-07-19T13:42:03;1.60;;;1.50;;
7965;SDS011;4028;43.272;26.932;2022-07-19T13:44:29;3.22;;;1.50;;
7965;SDS011;4028;43.272;26.932;2022-07-19T13:46:54;1.70;;;1.60;;
7965;SDS011;4028;43.272;26.932;2022-07-19T13:49:21;4.45;;;1.70;;
7965;SDS011;4028;43.272;26.932;2022-07-19T13:51:46;1.73;;;1.60;;
7965;SDS011;4028;43.272;26.932;2022-07-19T13:54:12;2.67;;;1.90;;
7965;SDS011;4028;43.272;26.932;2022-07-19T13:56:39;2.55;;;1.75;;
7965;SDS011;4028;43.272;26.932;2022-07-19T13:59:04;3.40;;;1.88;;
7965;SDS011;4028;43.272;26.932;2022-07-19T14:01:30;2.80;;;1.60;;
7965;SDS011;4028;43.272;26.932;2022-07-19T14:03:56;4.70;;;1.80;;
7965;SDS011;4028;43.272;26.932;2022-07-19T14:06:22;2.17;;;1.75;;
7965;SDS011;4028;43.272;26.932;2022-07-19T14:08:47;4.60;;;1.90;;
7965;SDS011;4028;43.272;26.932;2022-07-19T14:11:13;4.30;;;1.95;;
7965;SDS011;4028;43.272;26.932;2022-07-19T14:13:41;3.40;;;1.70;;
7965;SDS011;4028;43.272;26.932;2022-07-19T14:16:06;3.47;;;2.10;;
7965;SDS011;4028;43.272;26.932;2022-07-19T14:18:32;2.38;;;1.92;;
7965;SDS011;4028;43.272;26.932;2022-07-19T14:20:58;2.10;;;1.90;;
7965;SDS011;4028;43.272;26.932;2022-07-19T14:23:24;3.28;;;1.60;;
7965;SDS011;4028;43.272;26.932;2022-07-19T14:25:49;3.67;;;1.60;;
7965;SDS011;4028;43.272;26.932;2022-07-19T14:28:15;3.10;;;1.88;;
7965;SDS011;4028;43.272;26.932;2022-07-19T14:30:41;7.72;;;1.65;;
7965;SDS011;4028;43.272;26.932;2022-07-19T14:33:07;2.20;;;1.65;;
7965;SDS011;4028;43.272;26.932;2022-07-19T14:35:33;1.60;;;1.50;;
7965;SDS011;4028;43.272;26.932;2022-07-19T14:37:58;3.75;;;1.60;;
7965;SDS011;4028;43.272;26.932;2022-07-19T14:40:24;5.57;;;1.73;;
7965;SDS011;4028;43.272;26.932;2022-07-19T14:42:49;3.42;;;1.70;;
7965;SDS011;4028;43.272;26.932;2022-07-19T14:45:15;6.05;;;1.70;;
7965;SDS011;4028;43.272;26.932;2022-07-19T14:47:41;3.05;;;1.67;;
7965;SDS011;4028;43.272;26.932;2022-07-19T14:50:07;4.20;;;1.90;;
7965;SDS011;4028;43.272;26.932;2022-07-19T14:52:34;3.35;;;1.77;;
7965;SDS011;4028;43.272;26.932;2022-07-19T14:55:00;6.88;;;2.03;;
7965;SDS011;4028;43.272;26.932;2022-07-19T14:57:26;3.50;;;2.13;;
7965;SDS011;4028;43.272;26.932;2022-07-19T14:59:52;4.57;;;1.73;;
7965;SDS011;4028;43.272;26.932;2022-07-19T15:02:18;3.72;;;1.60;;
7965;SDS011;4028;43.272;26.932;2022-07-19T15:04:44;4.28;;;1.90;;
7965;SDS011;4028;43.272;26.932;2022-07-19T15:07:10;3.90;;;1.80;;
7965;SDS011;4028;43.272;26.932;2022-07-19T15:09:36;3.08;;;2.00;;
7965;SDS011;4028;43.272;26.932;2022-07-19T15:12:02;3.85;;;1.65;;
7965;SDS011;4028;43.272;26.932;2022-07-19T15:14:28;4.10;;;1.92;;
7965;SDS011;4028;43.272;26.932;2022-07-19T15:16:58;1.70;;;1.48;;
7965;SDS011;4028;43.272;26.932;2022-07-19T15:19:25;2.80;;;1.60;;
7965;SDS011;4028;43.272;26.932;2022-07-19T15:21:51;1.75;;;1.65;;
7965;SDS011;4028;43.272;26.932;2022-07-19T15:24:17;4.38;;;1.88;;